Time;durP1;ratioP1;P1;durP2;ratioP2;P2;SDS_P1;SDS_P2;PMS_P1;PMS_P2;Temp;Humidity;BMP_temperature;BMP_pressure;BME280_temperature;BME280_humidity;BME280_pressure;Samples;Min_cycle;Max_cycle;Signal;HPM_P1;HPM_P2
2024/01/17 00:00:20;;;;;;;13.77;8.87;;;1.50;90.80;;;2.94;61.20;100040.16;3079532;46;20486;-66
2024/01/17 00:02:48;;;;;;;12.13;9.77;;;1.50;90.80;;;2.97;61.06;100039.88;3079743;46;20994;-65
2024/01/17 00:05:17;;;;;;;12.83;8.60;;;1.50;90.70;;;2.98;60.60;100041.50;3081852;46;20515;-66
2024/01/17 00:07:45;;;;;;;13.90;9.00;;;1.50;90.60;;;2.99;61.11;100036.19;3082647;46;21052;-66
2024/01/17 00:10:16;;;;;;;12.63;8.30;;;1.50;90.60;;;3.00;60.59;100029.19;3082381;46;21103;-66
2024/01/17 00:12:45;;;;;;;12.07;8.50;;;1.60;90.50;;;2.96;60.55;100025.25;3082754;46;20434;-66
2024/01/17 00:15:13;;;;;;;13.23;8.90;;;1.60;90.40;;;2.90;60.86;100025.81;3082492;46;20462;-66
2024/01/17 00:17:41;;;;;;;12.93;7.70;;;1.60;90.30;;;2.87;61.07;100023.50;3082314;46;21115;-68
2024/01/17 00:20:10;;;;;;;11.93;8.07;;;1.60;90.30;;;2.88;60.90;100017.34;3082626;46;21010;-66
2024/01/17 00:22:39;;;;;;;12.13;9.07;;;1.50;90.30;;;2.88;60.82;100017.34;3082653;46;20434;-66
2024/01/17 00:25:11;;;;;;;12.77;8.10;;;1.50;90.30;;;2.84;60.73;100010.78;3082707;46;20526;-65
2024/01/17 00:27:39;;;;;;;13.07;8.37;;;1.50;90.30;;;2.70;60.70;99999.09;3082234;46;21114;-66
2024/01/17 00:30:08;;;;;;;13.50;8.20;;;1.40;90.00;;;2.59;60.71;99996.69;3082830;46;20917;-65
2024/01/17 00:32:37;;;;;;;12.77;8.17;;;1.40;89.90;;;2.51;61.10;99989.59;3082543;46;20529;-66
2024/01/17 00:35:08;;;;;;;12.87;8.50;;;1.40;90.00;;;2.43;61.26;99989.47;3082776;46;20429;-66
2024/01/17 00:37:36;;;;;;;13.17;8.30;;;1.30;90.00;;;2.40;61.10;99991.56;3082181;46;20474;-66
2024/01/17 00:40:05;;;;;;;11.80;8.03;;;1.30;90.00;;;2.42;61.29;99992.22;3082665;46;20980;-63
2024/01/17 00:42:34;;;;;;;9.87;7.73;;;1.20;90.10;;;2.33;61.04;99977.50;3082623;46;20449;-67
2024/01/17 00:45:03;;;;;;;13.40;8.33;;;1.20;90.20;;;2.33;61.31;99986.09;3082417;46;20521;-65
2024/01/17 00:47:32;;;;;;;15.13;8.03;;;1.20;90.20;;;2.31;61.16;99985.41;3082134;46;20575;-66
2024/01/17 00:50:01;;;;;;;12.50;8.77;;;1.10;90.30;;;2.26;61.59;99973.84;3082444;46;20452;-66
2024/01/17 00:52:30;;;;;;;12.30;8.27;;;1.10;90.30;;;2.22;61.36;99967.25;3082239;46;21056;-66
2024/01/17 00:54:59;;;;;;;10.60;8.10;;;1.00;90.30;;;2.18;61.61;99961.56;3082756;46;20442;-66
2024/01/17 00:57:27;;;;;;;10.57;8.80;;;1.00;90.30;;;2.16;61.48;99963.47;3081753;46;20529;-66
2024/01/17 00:59:56;;;;;;;11.57;8.50;;;1.00;90.40;;;2.09;61.88;99967.59;3082133;46;20522;-65
2024/01/17 01:02:24;;;;;;;12.07;8.20;;;0.90;90.30;;;2.11;61.89;99970.03;3082003;46;20427;-66
2024/01/17 01:04:53;;;;;;;13.47;8.87;;;0.90;90.40;;;2.04;61.82;99962.00;3082564;46;20560;-66
2024/01/17 01:07:21;;;;;;;12.40;8.47;;;0.90;90.40;;;1.98;62.17;99959.94;3081918;46;20446;-66
2024/01/17 01:09:50;;;;;;;15.27;9.37;;;0.80;90.40;;;1.95;62.14;99955.84;3081785;46;20459;-66
2024/01/17 01:12:26;;;;;;;10.73;9.10;;;0.80;90.40;;;1.97;62.11;99953.13;3082366;46;20438;-66
2024/01/17 01:14:54;;;;;;;14.27;9.10;;;0.80;90.50;;;2.00;62.04;99947.63;3081737;46;21010;-66
2024/01/17 01:17:22;;;;;;;14.57;9.30;;;0.80;90.50;;;1.98;62.28;99949.56;3081943;46;20450;-66
2024/01/17 01:19:51;;;;;;;15.20;9.30;;;0.80;90.60;;;2.02;62.04;99948.34;3082333;46;20481;-66
2024/01/17 01:22:19;;;;;;;12.80;9.03;;;0.80;90.60;;;2.05;61.99;99946.28;3081992;46;20454;-65
2024/01/17 01:24:48;;;;;;;14.83;9.30;;;0.70;90.70;;;2.06;61.74;99947.09;3082068;46;20438;-66
2024/01/17 01:27:16;;;;;;;12.33;8.60;;;0.70;90.70;;;2.02;62.05;99949.13;3081534;46;20445;-66
2024/01/17 01:29:44;;;;;;;10.67;8.50;;;0.70;90.70;;;2.02;61.69;99935.38;3082494;46;20438;-65
2024/01/17 01:32:13;;;;;;;16.83;9.23;;;0.70;90.70;;;1.99;62.15;99935.66;3082291;46;21148;-66
2024/01/17 01:34:41;;;;;;;13.17;8.87;;;0.70;90.70;;;2.00;61.80;99937.25;3082018;46;20446;-65
2024/01/17 01:37:10;;;;;;;13.10;9.33;;;0.70;90.70;;;1.97;62.02;99932.38;3081672;46;21091;-66
2024/01/17 01:39:38;;;;;;;14.97;9.30;;;0.70;90.80;;;2.01;61.95;99936.31;3081781;46;20438;-65
2024/01/17 01:42:07;;;;;;;13.53;9.60;;;0.70;90.80;;;2.05;61.90;99935.91;3081977;46;20434;-66
2024/01/17 01:44:35;;;;;;;10.93;8.60;;;0.70;90.80;;;2.02;62.07;99927.59;3081841;46;20434;-66
2024/01/17 01:47:06;;;;;;;12.87;8.93;;;0.70;90.90;;;2.03;61.97;99935.22;3081373;46;20446;-66
2024/01/17 01:49:37;;;;;;;11.20;9.37;;;0.70;90.80;;;2.06;62.16;99934.13;3082016;46;20438;-65
2024/01/17 01:52:08;;;;;;;10.27;8.57;;;0.70;90.80;;;2.12;61.96;99930.97;3081853;46;20438;-66
2024/01/17 01:54:38;;;;;;;12.83;8.77;;;0.70;90.80;;;2.17;61.79;99926.16;3081758;46;20438;-64
2024/01/17 01:57:08;;;;;;;13.57;9.13;;;0.70;90.90;;;2.20;61.68;99927.66;3081507;46;20450;-63
2024/01/17 01:59:37;;;;;;;14.77;9.63;;;0.80;90.90;;;2.13;61.62;99927.41;3081564;46;20449;-66
2024/01/17 02:02:07;;;;;;;10.97;9.10;;;0.80;90.70;;;2.15;61.71;99920.31;3080417;46;20575;-66
2024/01/17 02:04:36;;;;;;;13.17;9.77;;;0.80;90.80;;;2.19;61.62;99913.88;3081798;46;20995;-64
2024/01/17 02:07:07;;;;;;;13.07;8.93;;;0.80;90.80;;;2.27;61.83;99911.38;3081119;46;20467;-66
2024/01/17 02:09:36;;;;;;;13.10;9.23;;;0.80;90.80;;;2.34;61.49;99902.06;3081693;46;21017;-66
2024/01/17 02:12:07;;;;;;;11.97;9.53;;;0.90;90.90;;;2.30;61.53;99898.13;3081014;46;20437;-64
2024/01/17 02:14:41;;;;;;;12.90;9.03;;;0.90;91.10;;;2.27;61.48;99900.19;3081219;46;21099;-66
2024/01/17 02:17:10;;;;;;;15.30;9.60;;;0.90;90.60;;;2.25;61.58;99900.34;3081294;46;20529;-65
2024/01/17 02:19:42;;;;;;;12.13;9.40;;;0.90;90.60;;;2.20;61.50;99886.97;3081766;46;20462;-66
2024/01/17 02:22:10;;;;;;;14.83;9.03;;;1.00;90.50;;;2.22;61.58;99882.44;3080980;46;21021;-65
2024/01/17 02:24:38;;;;;;;16.33;9.93;;;0.90;90.50;;;2.23;61.56;99876.31;3081776;46;20438;-66
2024/01/17 02:27:07;;;;;;;15.97;8.67;;;1.00;90.60;;;2.16;61.77;99864.88;3080250;46;20446;-66
2024/01/17 02:29:35;;;;;;;14.67;9.20;;;0.90;90.50;;;2.20;61.71;99855.00;3081543;46;20562;-66
2024/01/17 02:32:05;;;;;;;19.57;9.47;;;0.90;90.50;;;2.23;61.70;99859.91;3081314;46;20484;-64
2024/01/17 02:34:34;;;;;;;17.40;9.40;;;0.90;90.50;;;2.26;61.61;99850.03;3081550;46;20508;-66
2024/01/17 02:37:02;;;;;;;17.77;9.73;;;1.00;90.60;;;2.31;61.35;99841.81;3080961;46;21142;-65
2024/01/17 02:39:31;;;;;;;17.30;10.20;;;1.00;90.60;;;2.37;61.35;99849.06;3081343;46;20434;-66
2024/01/17 02:41:59;;;;;;;14.40;9.47;;;0.90;90.60;;;2.37;61.69;99849.06;3081513;46;20438;-66
2024/01/17 02:44:27;;;;;;;13.33;9.40;;;0.90;90.60;;;2.37;61.61;99847.28;3081348;46;20517;-67
2024/01/17 02:46:56;;;;;;;13.80;9.80;;;1.00;90.70;;;2.40;61.35;99836.59;3080794;46;21154;-66
2024/01/17 02:49:24;;;;;;;13.60;9.07;;;1.00;90.70;;;2.47;61.37;99842.03;3081526;46;20446;-66
2024/01/17 02:51:53;;;;;;;15.00;10.50;;;1.00;90.70;;;2.46;61.24;99841.22;3081439;46;20437;-66
2024/01/17 02:54:21;;;;;;;13.30;9.87;;;1.00;90.70;;;2.49;61.30;99835.75;3081478;46;20437;-64
2024/01/17 02:56:50;;;;;;;18.27;10.60;;;1.00;90.70;;;2.51;61.37;99843.38;3081061;46;20433;-66
2024/01/17 02:59:18;;;;;;;14.40;10.33;;;1.00;90.60;;;2.49;61.23;99832.31;3081502;46;20586;-66
2024/01/17 03:01:47;;;;;;;14.33;9.70;;;1.10;90.60;;;2.49;61.20;99819.34;3080479;46;20530;-66
2024/01/17 03:04:15;;;;;;;12.10;9.47;;;1.10;90.60;;;2.46;61.40;99804.88;3081204;46;20442;-63
2024/01/17 03:06:45;;;;;;;14.27;9.73;;;1.00;90.60;;;2.36;61.55;99804.09;3079838;46;20442;-66
2024/01/17 03:09:15;;;;;;;14.53;9.50;;;1.00;90.50;;;2.33;61.48;99794.00;3081004;46;20434;-66
2024/01/17 03:11:43;;;;;;;12.03;9.43;;;1.10;90.50;;;2.34;61.60;99785.25;3080945;46;20437;-66
2024/01/17 03:14:12;;;;;;;13.07;9.57;;;1.00;90.50;;;2.34;61.68;99787.84;3081000;46;20461;-66
2024/01/17 03:16:40;;;;;;;16.53;9.70;;;1.00;90.60;;;2.36;61.69;99783.34;3080453;46;21110;-66
2024/01/17 03:19:08;;;;;;;13.60;8.80;;;1.00;90.60;;;2.40;61.73;99769.09;3080406;46;20446;-65
2024/01/17 03:21:46;;;;;;;12.47;9.67;;;1.10;90.70;;;2.43;61.55;99763.59;3080169;46;20437;-66
2024/01/17 03:24:14;;;;;;;15.87;10.90;;;1.00;90.60;;;2.41;61.49;99760.34;3080922;46;20448;-66
2024/01/17 03:26:43;;;;;;;15.93;10.03;;;1.00;90.70;;;2.41;61.57;99764.72;3080673;46;21032;-65
2024/01/17 03:29:11;;;;;;;15.73;9.20;;;1.10;90.60;;;2.43;61.47;99766.22;3080621;46;20438;-66
2024/01/17 03:31:40;;;;;;;12.70;8.80;;;1.10;90.60;;;2.47;61.45;99754.56;3080510;46;20525;-65
2024/01/17 03:34:08;;;;;;;13.97;9.63;;;1.10;90.70;;;2.50;61.70;99743.88;3080778;46;21169;-66
2024/01/17 03:36:36;;;;;;;13.10;10.00;;;1.10;90.70;;;2.50;61.40;99754.28;3080663;46;20493;-63
2024/01/17 03:39:05;;;;;;;11.30;9.93;;;1.10;90.70;;;2.43;61.47;99748.03;3081588;46;21099;-66
2024/01/17 03:41:34;;;;;;;11.87;8.70;;;1.10;90.70;;;2.45;61.74;99746.09;3083505;46;20479;-66
2024/01/17 03:44:02;;;;;;;14.20;9.37;;;1.10;90.60;;;2.46;61.61;99742.56;3083107;46;20512;-64
2024/01/17 03:46:31;;;;;;;14.97;10.03;;;1.10;90.60;;;2.45;61.62;99735.72;3082528;46;20465;-67
2024/01/17 03:49:02;;;;;;;12.67;9.00;;;1.10;90.60;;;2.41;61.74;99729.19;3082709;46;20449;-66
2024/01/17 03:51:31;;;;;;;16.93;10.20;;;1.10;90.60;;;2.42;61.86;99728.25;3083313;46;20514;-65
2024/01/17 03:53:59;;;;;;;13.23;8.97;;;1.10;90.60;;;2.40;61.62;99727.56;3083285;46;21018;-65
2024/01/17 03:56:28;;;;;;;16.70;10.03;;;1.10;90.60;;;2.43;61.55;99711.69;3082712;46;21086;-65
2024/01/17 03:58:56;;;;;;;13.73;9.10;;;1.10;90.60;;;2.41;61.62;99692.84;3082687;46;20508;-66
2024/01/17 04:01:25;;;;;;;17.07;10.00;;;1.10;90.60;;;2.43;61.79;99695.28;3082593;46;20433;-64
2024/01/17 04:03:54;;;;;;;12.53;9.87;;;1.10;90.60;;;2.46;61.69;99695.00;3083105;46;20442;-66
2024/01/17 04:06:22;;;;;;;13.17;9.67;;;1.10;90.60;;;2.51;61.62;99687.59;3082617;46;20437;-66
2024/01/17 04:08:51;;;;;;;12.50;9.10;;;1.10;90.60;;;2.51;61.37;99688.41;3082235;46;20990;-64
2024/01/17 04:11:19;;;;;;;12.27;9.37;;;1.10;90.70;;;2.50;61.36;99683.34;3082831;46;20434;-66
2024/01/17 04:13:48;;;;;;;13.23;9.13;;;1.10;90.60;;;2.48;61.70;99678.31;3082841;46;20466;-66
2024/01/17 04:16:17;;;;;;;12.47;9.13;;;1.10;90.60;;;2.51;61.56;99677.19;3082662;46;21014;-67
2024/01/17 04:18:46;;;;;;;15.93;9.40;;;1.10;90.70;;;2.50;61.41;99676.38;3082078;46;21013;-66
2024/01/17 04:21:19;;;;;;;10.33;8.53;;;1.10;90.70;;;2.49;61.27;99673.94;3082652;46;20458;-66
2024/01/17 04:23:49;;;;;;;11.03;9.03;;;1.10;90.60;;;2.50;61.38;99668.59;3083020;46;20438;-66
2024/01/17 04:26:24;;;;;;;11.70;8.80;;;1.10;90.60;;;2.48;61.54;99660.13;3082762;46;20503;-65
2024/01/17 04:28:53;;;;;;;11.27;8.97;;;1.10;90.60;;;2.52;61.22;99658.88;3082089;46;20587;-65
2024/01/17 04:31:29;;;;;;;13.00;9.03;;;1.20;90.60;;;2.46;61.38;99672.47;3082751;46;20578;-66
2024/01/17 04:34:02;;;;;;;14.47;8.80;;;1.10;90.50;;;2.50;61.31;99654.78;3082412;46;20444;-68
2024/01/17 04:36:31;;;;;;;12.50;8.57;;;1.10;90.50;;;2.49;61.44;99658.38;3082404;46;20489;-66
2024/01/17 04:39:00;;;;;;;16.60;8.97;;;1.20;90.50;;;2.49;61.09;99655.78;3082116;46;20470;-66
2024/01/17 04:41:30;;;;;;;10.17;8.23;;;1.10;90.50;;;2.49;61.38;99643.59;3082641;46;20434;-66
2024/01/17 04:43:58;;;;;;;11.10;8.03;;;1.10;90.40;;;2.52;61.00;99642.50;3082667;46;20434;-66
2024/01/17 04:46:27;;;;;;;10.40;8.60;;;1.10;90.50;;;2.45;61.25;99631.88;3082300;46;20442;-66
2024/01/17 04:48:55;;;;;;;14.50;9.10;;;1.10;90.40;;;2.45;61.13;99631.88;3081910;46;21012;-66
2024/01/17 04:51:25;;;;;;;12.90;8.10;;;1.10;90.40;;;2.50;61.19;99621.84;3081629;46;20434;-66
2024/01/17 04:53:54;;;;;;;15.63;8.67;;;1.10;90.40;;;2.50;61.27;99621.84;3082248;46;21058;-66
2024/01/17 04:56:23;;;;;;;13.27;8.70;;;1.10;90.50;;;2.51;61.26;99613.13;3082075;46;20552;-66
2024/01/17 04:58:53;;;;;;;13.53;7.97;;;1.10;90.50;;;2.55;61.25;99617.03;3081922;46;20439;-65
2024/01/17 05:01:22;;;;;;;11.17;8.60;;;1.10;90.50;;;2.52;61.00;99612.13;3081767;46;20423;-65
2024/01/17 05:03:50;;;;;;;15.73;9.40;;;1.20;90.40;;;2.58;61.00;99610.72;3082425;46;20546;-65
2024/01/17 05:06:19;;;;;;;12.13;8.60;;;1.10;90.40;;;2.59;60.96;99602.75;3082304;46;20458;-66
2024/01/17 05:08:47;;;;;;;10.07;7.60;;;1.10;90.40;;;2.61;60.81;99598.25;3081439;46;20550;-66
2024/01/17 05:11:23;;;;;;;10.37;7.47;;;1.20;90.50;;;2.59;60.89;99592.38;3081303;46;20469;-66
2024/01/17 05:13:52;;;;;;;12.27;8.13;;;1.20;90.40;;;2.54;60.68;99597.22;3082712;46;20505;-64
2024/01/17 05:16:20;;;;;;;10.10;7.87;;;1.20;90.30;;;2.55;60.99;99593.66;3081869;46;20441;-66
2024/01/17 05:18:49;;;;;;;11.30;7.70;;;1.20;90.30;;;2.53;60.64;99585.22;3081516;46;20446;-66
2024/01/17 05:21:17;;;;;;;9.40;7.67;;;1.20;90.20;;;2.56;60.73;99577.13;3082226;46;20438;-65
2024/01/17 05:23:46;;;;;;;12.43;7.33;;;1.20;90.20;;;2.57;60.72;99568.34;3082436;46;20474;-66
2024/01/17 05:26:14;;;;;;;10.57;8.13;;;1.20;90.20;;;2.58;60.72;99575.19;3081963;46;20478;-66
2024/01/17 05:28:43;;;;;;;14.17;7.97;;;1.20;90.20;;;2.56;60.54;99569.34;3081191;46;20439;-66
2024/01/17 05:31:12;;;;;;;9.80;8.00;;;1.20;90.20;;;2.57;60.63;99570.94;3081994;46;20438;-64
2024/01/17 05:33:41;;;;;;;9.27;7.77;;;1.10;90.10;;;2.54;60.54;99560.84;3081622;46;20452;-64
2024/01/17 05:36:10;;;;;;;12.87;8.23;;;1.20;90.10;;;2.53;60.52;99551.47;3081809;46;20511;-66
2024/01/17 05:38:39;;;;;;;11.60;7.20;;;1.10;90.00;;;2.50;60.23;99545.75;3081105;46;20436;-62
2024/01/17 05:41:07;;;;;;;14.47;8.80;;;1.10;90.00;;;2.48;60.29;99540.72;3082057;46;20522;-65
2024/01/17 05:43:35;;;;;;;10.33;7.80;;;1.10;90.00;;;2.39;60.48;99530.44;3081736;46;20427;-66
2024/01/17 05:46:04;;;;;;;16.27;8.43;;;1.10;89.70;;;2.39;60.44;99522.63;3081899;46;20466;-66
2024/01/17 05:48:32;;;;;;;10.23;7.80;;;1.10;89.90;;;2.39;60.47;99518.28;3081132;46;20446;-66
2024/01/17 05:51:01;;;;;;;9.63;7.43;;;1.10;89.90;;;2.39;60.59;99507.88;3081470;46;20486;-66
2024/01/17 05:53:29;;;;;;;10.57;7.37;;;1.10;89.80;;;2.41;60.46;99502.53;3081499;46;20459;-66
2024/01/17 05:55:58;;;;;;;10.27;7.40;;;1.00;90.00;;;2.40;60.61;99495.72;3081530;46;21022;-66
2024/01/17 05:58:29;;;;;;;10.33;7.13;;;1.00;89.90;;;2.37;60.24;99502.03;3081031;46;20446;-66
2024/01/17 06:00:57;;;;;;;7.70;6.57;;;1.00;89.90;;;2.32;60.18;99506.88;3081187;46;20438;-66
2024/01/17 06:03:26;;;;;;;10.73;7.20;;;1.00;89.70;;;2.33;60.43;99497.31;3080257;46;21060;-66
2024/01/17 06:05:55;;;;;;;12.40;7.30;;;1.00;89.60;;;2.35;60.41;99501.38;3081685;46;20463;-66
2024/01/17 06:08:23;;;;;;;8.43;7.10;;;1.00;89.70;;;2.37;60.17;99499.44;3080988;46;20439;-66
2024/01/17 06:10:51;;;;;;;11.07;7.77;;;1.00;89.80;;;2.36;60.49;99500.41;3081201;46;20455;-65
2024/01/17 06:13:20;;;;;;;11.07;7.80;;;1.00;90.20;;;2.31;60.34;99497.44;3081331;46;21009;-64
2024/01/17 06:15:48;;;;;;;9.63;7.77;;;1.00;89.80;;;2.26;60.23;99486.69;3081432;46;20427;-65
2024/01/17 06:18:17;;;;;;;11.23;7.77;;;1.00;89.80;;;2.22;60.55;99485.38;3081187;46;20470;-66
2024/01/17 06:20:46;;;;;;;12.00;7.07;;;1.00;89.80;;;2.24;60.63;99478.25;3081302;46;20457;-65
2024/01/17 06:23:15;;;;;;;12.77;8.10;;;1.00;89.90;;;2.21;60.66;99473.38;3081357;46;20477;-63
2024/01/17 06:25:43;;;;;;;9.90;6.90;;;0.90;89.80;;;2.17;60.52;99471.22;3081128;46;20457;-64
2024/01/17 06:28:11;;;;;;;11.70;8.20;;;0.90;89.70;;;2.14;60.69;99463.78;3080789;46;20475;-66
2024/01/17 06:30:40;;;;;;;11.17;6.97;;;0.90;89.70;;;2.10;60.60;99452.88;3081026;46;20468;-66
2024/01/17 06:33:09;;;;;;;11.57;8.33;;;0.90;89.60;;;2.10;60.70;99458.06;3081572;46;21003;-65
2024/01/17 06:35:37;;;;;;;8.73;7.03;;;0.90;89.60;;;2.06;60.78;99451.56;3081327;46;20481;-66
2024/01/17 06:38:06;;;;;;;16.83;7.73;;;0.80;89.50;;;2.00;60.69;99442.59;3080492;46;20449;-66
2024/01/17 06:40:34;;;;;;;12.93;7.33;;;0.80;89.50;;;1.98;60.84;99447.13;3081068;46;20434;-64
2024/01/17 06:43:07;;;;;;;11.50;7.27;;;0.80;89.50;;;1.96;60.74;99448.22;3081275;46;20489;-64
2024/01/17 06:45:36;;;;;;;12.63;7.77;;;0.80;89.50;;;1.98;60.86;99449.72;3080857;46;21066;-66
2024/01/17 06:48:05;;;;;;;11.17;7.47;;;0.80;89.70;;;2.01;60.94;99448.59;3080422;46;20446;-66
2024/01/17 06:50:34;;;;;;;11.93;7.63;;;0.70;89.60;;;2.00;60.85;99444.38;3080757;46;20434;-65
2024/01/17 06:53:02;;;;;;;13.40;7.63;;;0.70;89.70;;;1.95;60.56;99449.19;3081094;46;20433;-65
2024/01/17 06:55:32;;;;;;;10.43;7.23;;;0.70;89.60;;;1.93;60.93;99444.16;3079818;46;20438;-66
2024/01/17 06:58:00;;;;;;;11.10;7.93;;;0.70;89.60;;;1.98;60.84;99451.50;3080440;46;20511;-66
2024/01/17 07:00:28;;;;;;;16.33;8.43;;;0.70;89.70;;;2.01;60.78;99440.81;3080722;46;20986;-65
2024/01/17 07:03:01;;;;;;;11.23;7.83;;;0.70;89.70;;;2.01;60.88;99451.19;3080549;46;21124;-63
2024/01/17 07:05:29;;;;;;;11.93;7.97;;;0.70;89.70;;;2.04;60.82;99443.13;3079922;46;20988;-66
2024/01/17 07:07:58;;;;;;;9.83;7.30;;;0.80;89.90;;;2.05;60.56;99437.75;3079703;46;20446;-66
2024/01/17 07:10:27;;;;;;;12.13;8.57;;;0.70;89.90;;;2.05;60.74;99423.97;3080046;46;20560;-66
2024/01/17 07:12:56;;;;;;;11.67;7.73;;;0.70;89.70;;;2.01;60.57;99430.44;3079812;46;20660;-66
2024/01/17 07:15:25;;;;;;;11.27;6.90;;;0.70;89.60;;;1.92;60.86;99428.75;3082059;46;20529;-66
2024/01/17 07:17:54;;;;;;;11.80;7.40;;;0.80;89.70;;;1.97;60.91;99418.75;3082023;43;20501;-66
2024/01/17 07:20:22;;;;;;;11.23;7.30;;;0.70;89.70;;;1.95;60.78;99415.47;3082995;46;20447;-66
2024/01/17 07:22:51;;;;;;;11.77;7.47;;;0.70;89.70;;;1.89;60.91;99411.72;3081763;46;20458;-64
2024/01/17 07:25:21;;;;;;;14.97;7.03;;;0.70;89.60;;;1.91;61.10;99419.34;3082221;46;20578;-66
2024/01/17 07:27:50;;;;;;;10.87;7.40;;;0.70;89.80;;;1.96;60.86;99417.94;3081491;46;20489;-67
2024/01/17 07:30:19;;;;;;;11.57;7.47;;;0.70;89.80;;;1.87;60.82;99407.66;3082802;46;20438;-66
2024/01/17 07:32:48;;;;;;;9.60;6.73;;;0.70;89.60;;;1.88;61.02;99409.25;3082033;46;20583;-66
2024/01/17 07:35:17;;;;;;;11.53;6.60;;;0.70;89.80;;;1.89;60.74;99400.53;3081986;46;20532;-65
2024/01/17 07:37:45;;;;;;;9.93;6.77;;;0.70;89.60;;;1.82;60.94;99400.34;3080121;46;20445;-66
2024/01/17 07:40:14;;;;;;;13.23;7.27;;;0.60;89.50;;;1.82;61.03;99399.50;3081261;46;20437;-66
2024/01/17 07:42:43;;;;;;;19.47;7.70;;;0.60;89.60;;;1.79;61.09;99394.63;3082243;46;20438;-67
2024/01/17 07:45:12;;;;;;;12.53;6.70;;;0.60;89.70;;;1.76;61.12;99398.31;3081011;46;20446;-67
2024/01/17 07:47:48;;;;;;;12.53;6.27;;;0.60;89.80;;;1.68;60.86;99390.50;3080801;46;20462;-70
2024/01/17 07:50:17;;;;;;;12.00;6.83;;;0.60;89.50;;;1.65;61.10;99383.03;3081098;46;20571;-66
2024/01/17 07:52:50;;;;;;;10.83;6.60;;;0.60;89.60;;;1.60;61.29;99379.25;3081430;43;20517;-66
2024/01/17 07:55:21;;;;;;;12.27;6.53;;;0.50;89.60;;;1.62;61.17;99372.94;3078570;46;20489;-67
2024/01/17 07:57:49;;;;;;;9.03;6.57;;;0.50;89.40;;;1.67;60.71;99375.09;3076576;46;20490;-64
2024/01/17 08:00:18;;;;;;;9.93;6.23;;;0.50;89.40;;;1.69;60.70;99383.56;3080069;46;20458;-67
2024/01/17 08:02:49;;;;;;;9.63;6.40;;;0.50;89.30;;;1.65;60.78;99364.06;3079055;46;20456;-66
2024/01/17 08:05:18;;;;;;;11.67;6.33;;;0.50;89.20;;;1.65;60.94;99361.47;3080873;46;20555;-66
2024/01/17 08:07:49;;;;;;;9.30;6.13;;;0.50;89.20;;;1.66;60.72;99363.09;3077008;46;20450;-67
2024/01/17 08:10:26;;;;;;;8.13;5.87;;;0.50;89.20;;;1.67;60.50;99364.72;3077383;46;20451;-65
2024/01/17 08:12:55;;;;;;;9.97;6.37;;;0.50;89.10;;;1.71;60.60;99361.66;3077830;46;20547;-64
2024/01/17 08:15:23;;;;;;;9.77;7.03;;;0.50;89.10;;;1.77;60.53;99365.44;3080849;46;21011;-66
2024/01/17 08:17:51;;;;;;;11.13;7.27;;;0.50;89.10;;;1.83;60.69;99364.84;3080327;46;20684;-65
2024/01/17 08:20:20;;;;;;;12.03;6.07;;;0.50;89.20;;;1.92;60.07;99358.72;3079440;46;20500;-66
2024/01/17 08:22:49;;;;;;;8.27;5.83;;;0.50;89.30;;;1.88;59.76;99357.38;3081651;46;20462;-65
2024/01/17 08:25:21;;;;;;;11.50;5.90;;;0.50;88.90;;;1.87;59.64;99353.19;3080988;46;20594;-65
2024/01/17 08:27:51;;;;;;;12.53;6.60;;;0.60;88.70;;;1.88;59.71;99357.38;3080630;46;21026;-66
2024/01/17 08:30:20;;;;;;;11.70;7.07;;;0.60;88.50;;;1.91;59.76;99351.91;3081074;46;21017;-65
2024/01/17 08:32:48;;;;;;;8.87;6.20;;;0.60;88.50;;;1.93;59.78;99349.97;3081725;43;20534;-66
2024/01/17 08:35:17;;;;;;;9.80;6.03;;;0.60;88.70;;;2.02;59.94;99354.25;3081715;46;20484;-64
2024/01/17 08:37:47;;;;;;;11.47;7.13;;;0.60;88.70;;;2.05;59.59;99338.38;3081652;46;20537;-66
2024/01/17 08:40:16;;;;;;;11.73;6.33;;;0.60;88.60;;;2.17;59.60;99337.13;3081863;46;20545;-65
2024/01/17 08:42:51;;;;;;;9.10;6.10;;;0.70;88.80;;;2.14;59.09;99327.03;3078786;43;21450;-66
2024/01/17 08:45:31;;;;;;;9.37;5.77;;;0.70;88.20;;;2.22;59.07;99329.69;3078595;46;20438;-66
2024/01/17 08:48:03;;;;;;;9.57;6.10;;;0.70;88.30;;;2.22;58.64;99334.88;3079534;46;20993;-65
2024/01/17 08:50:32;;;;;;;13.73;6.60;;;0.80;88.00;;;2.32;58.94;99322.59;3081228;46;21014;-66
2024/01/17 08:53:01;;;;;;;10.17;6.03;;;0.80;88.10;;;2.35;58.52;99324.88;3081190;46;20525;-66
2024/01/17 08:55:29;;;;;;;10.70;5.83;;;0.80;87.70;;;2.43;58.45;99317.09;3081045;46;21047;-66
2024/01/17 08:57:57;;;;;;;14.20;6.40;;;0.90;87.60;;;2.47;58.16;99318.41;3080183;46;20495;-65
2024/01/17 09:00:26;;;;;;;9.00;5.30;;;0.90;87.40;;;2.54;57.84;99311.59;3081200;46;20446;-66
2024/01/17 09:02:54;;;;;;;13.13;6.43;;;0.90;87.30;;;2.55;57.84;99310.66;3080181;46;20450;-64
2024/01/17 09:05:23;;;;;;;11.47;6.63;;;1.00;87.10;;;2.62;57.50;99305.63;3080749;46;21001;-66
2024/01/17 09:07:52;;;;;;;9.80;5.73;;;1.10;86.90;;;2.62;57.12;99303.84;3081000;46;21104;-66
2024/01/17 09:10:21;;;;;;;8.40;5.87;;;1.10;86.50;;;2.70;57.61;99297.84;3081476;46;20463;-66
2024/01/17 09:12:51;;;;;;;9.43;6.40;;;1.20;86.80;;;2.72;57.17;99291.53;3081286;46;20432;-66
2024/01/17 09:15:21;;;;;;;6.93;5.47;;;1.20;86.50;;;2.73;57.16;99285.34;3080219;46;21035;-66
2024/01/17 09:17:50;;;;;;;8.23;5.80;;;1.20;86.10;;;2.74;57.25;99275.78;3079354;46;21074;-66
2024/01/17 09:20:20;;;;;;;12.13;6.53;;;1.20;86.10;;;2.76;57.21;99271.22;3081309;46;20530;-67
2024/01/17 09:22:49;;;;;;;10.77;6.10;;;1.30;86.00;;;2.78;57.21;99274.50;3081138;46;20467;-64
2024/01/17 09:25:17;;;;;;;13.87;6.03;;;1.30;86.10;;;2.77;56.74;99266.84;3080621;46;20442;-65
2024/01/17 09:27:45;;;;;;;9.60;6.53;;;1.30;85.70;;;2.74;56.85;99268.81;3081307;46;20463;-67
2024/01/17 09:30:14;;;;;;;11.73;6.13;;;1.40;85.60;;;2.81;56.88;99263.78;3080960;46;20576;-65
2024/01/17 09:32:47;;;;;;;9.00;6.57;;;1.40;85.50;;;2.86;56.93;99255.50;3080874;46;20573;-66
2024/01/17 09:35:16;;;;;;;9.23;6.53;;;1.40;85.30;;;2.91;56.52;99255.81;3080370;46;20528;-65
2024/01/17 09:37:45;;;;;;;8.87;6.60;;;1.40;85.30;;;2.97;56.33;99250.00;3080845;46;20580;-66
2024/01/17 09:40:13;;;;;;;12.73;8.67;;;1.50;84.90;;;3.15;56.56;99250.63;3081392;46;20470;-66
2024/01/17 09:43:04;;;;;;;12.77;6.67;;;1.50;85.50;;;3.27;56.00;99244.09;3079224;46;20435;-67
2024/01/17 09:45:40;;;;;;;9.17;5.73;;;1.60;85.30;;;3.37;55.61;99245.56;3078981;44;20521;-66
2024/01/17 09:48:12;;;;;;;11.17;6.33;;;1.70;84.80;;;3.41;55.26;99240.81;3079180;46;21160;-65
2024/01/17 09:50:40;;;;;;;11.27;6.57;;;1.70;84.00;;;3.47;55.13;99244.56;3078571;46;20458;-66
2024/01/17 09:53:12;;;;;;;11.23;6.17;;;1.80;83.90;;;3.55;54.71;99241.94;3079878;46;20543;-66
2024/01/17 09:55:44;;;;;;;11.70;6.37;;;1.90;83.90;;;3.61;54.59;99236.88;3080183;46;20564;-65
2024/01/17 09:58:15;;;;;;;10.13;6.10;;;1.90;83.30;;;3.68;53.95;99237.84;3079359;46;20447;-66
2024/01/17 10:00:45;;;;;;;8.30;5.93;;;1.90;82.90;;;3.82;54.49;99238.94;3080028;46;20484;-66
2024/01/17 10:03:20;;;;;;;9.07;5.50;;;2.00;83.40;;;3.89;53.55;99245.06;3079164;46;20630;-66
2024/01/17 10:05:52;;;;;;;11.20;6.17;;;2.10;82.60;;;3.88;53.41;99233.84;3080665;46;21139;-65
2024/01/17 10:08:21;;;;;;;8.60;6.00;;;2.10;81.70;;;3.83;53.51;99225.72;3080720;46;20435;-66
2024/01/17 10:10:51;;;;;;;9.37;6.67;;;2.20;81.40;;;3.83;53.16;99220.53;3081412;46;20458;-63
2024/01/17 10:13:19;;;;;;;12.77;6.60;;;2.20;81.00;;;3.87;53.37;99211.44;3080058;46;20560;-64
2024/01/17 10:15:48;;;;;;;10.10;6.07;;;2.30;81.40;;;3.99;53.17;99204.06;3079968;46;20580;-66
2024/01/17 10:18:17;;;;;;;11.57;6.03;;;2.30;81.70;;;3.96;52.69;99204.38;3079416;46;20442;-66
2024/01/17 10:20:46;;;;;;;11.67;6.90;;;2.30;80.60;;;4.09;52.91;99202.84;3080006;46;20436;-64
2024/01/17 10:23:14;;;;;;;11.52;6.85;;;2.40;81.00;;;4.20;52.49;99201.66;3080059;46;22090;-66
2024/01/17 10:25:43;;;;;;;12.30;6.23;;;2.50;80.60;;;4.37;52.28;99190.16;3079715;46;20484;-66
2024/01/17 10:28:11;;;;;;;13.50;6.83;;;2.50;80.80;;;4.46;52.16;99188.28;3078921;46;21094;-66
2024/01/17 10:30:40;;;;;;;10.23;6.73;;;2.60;80.40;;;4.56;51.87;99184.47;3080111;46;20433;-66
2024/01/17 10:33:08;;;;;;;9.03;6.17;;;2.70;80.40;;;4.67;51.69;99184.06;3080650;46;20555;-66
2024/01/17 10:35:37;;;;;;;9.03;6.27;;;2.80;80.00;;;4.82;51.61;99186.72;3080226;46;20494;-66